createdAt,value
2019-05-19T02:24:22.986Z,5.90
2019-05-19T02:25:22.961Z,9.00
2019-05-19T02:26:22.943Z,7.69
2019-05-19T02:27:22.932Z,7.50
2019-05-19T02:28:22.954Z,6.30
2019-05-19T02:29:22.908Z,6.69
2019-05-19T02:30:22.899Z,9.00
2019-05-19T02:32:22.880Z,7.30
2019-05-19T02:33:22.866Z,6.69
2019-05-19T02:34:22.854Z,5.59
2019-05-19T02:35:22.853Z,6.90
2019-05-19T02:36:22.833Z,7.00
2019-05-19T02:37:22.818Z,7.40
2019-05-19T02:38:22.811Z,7.90
2019-05-19T02:39:22.795Z,6.69
2019-05-19T02:40:22.794Z,6.59
2019-05-19T02:41:22.772Z,7.59
2019-05-19T02:42:22.761Z,5.69
2019-05-19T02:43:22.750Z,6.00
2019-05-19T02:44:22.739Z,6.80
2019-05-19T02:45:22.725Z,7.09
2019-05-19T02:46:22.718Z,7.30
2019-05-19T02:47:22.711Z,9.00
2019-05-19T02:48:22.695Z,8.19
2019-05-19T02:49:22.679Z,7.40
2019-05-19T02:50:22.679Z,6.90
2019-05-19T02:51:22.662Z,7.59
2019-05-19T02:52:22.647Z,7.09
2019-05-19T02:53:22.634Z,9.69
2019-05-19T02:55:22.616Z,7.59
2019-05-19T02:56:22.601Z,8.60
2019-05-19T02:57:22.590Z,6.90
2019-05-19T02:58:22.583Z,7.80
2019-05-19T02:59:22.568Z,6.30
2019-05-19T03:00:22.554Z,9.50
2019-05-19T03:01:22.543Z,7.09
2019-05-19T03:02:22.544Z,7.19
2019-05-19T03:03:22.523Z,6.19
2019-05-19T03:04:22.509Z,8.50
2019-05-19T03:05:22.504Z,7.90
2019-05-19T03:06:22.486Z,7.90
2019-05-19T03:07:22.476Z,8.39
2019-05-19T03:08:22.464Z,8.39
2019-05-19T03:09:22.455Z,8.80
2019-05-19T03:10:22.442Z,9.00
2019-05-19T03:11:22.428Z,8.60
2019-05-19T03:12:22.418Z,7.19
2019-05-19T03:13:22.406Z,7.40
2019-05-19T03:14:22.396Z,7.90
2019-05-19T03:15:22.386Z,7.00
2019-05-19T03:16:22.371Z,8.39
2019-05-19T03:17:22.361Z,7.30
2019-05-19T03:18:22.359Z,7.80
2019-05-19T03:19:22.339Z,10.19
2019-05-19T03:20:22.329Z,7.80
2019-05-19T03:21:22.325Z,8.00
2019-05-19T03:22:22.307Z,9.30
2019-05-19T03:23:22.439Z,8.69
2019-05-19T03:24:22.287Z,8.39
2019-05-19T03:25:22.272Z,10.30
2019-05-19T03:26:22.256Z,7.69
2019-05-19T03:27:22.251Z,6.50
2019-05-19T03:28:22.232Z,7.59
2019-05-19T03:29:22.227Z,7.80
2019-05-19T03:30:22.216Z,6.69
2019-05-19T03:31:22.365Z,7.30
2019-05-19T03:32:22.187Z,7.90
2019-05-19T03:33:22.184Z,7.09
2019-05-19T03:34:22.172Z,7.50
2019-05-19T03:35:22.153Z,9.00
2019-05-19T03:36:22.141Z,8.69
2019-05-19T03:37:22.136Z,8.10
2019-05-19T03:38:22.124Z,7.90
2019-05-19T03:39:22.108Z,7.80
2019-05-19T03:40:22.103Z,7.50
2019-05-19T03:41:22.088Z,6.30
2019-05-19T03:42:22.077Z,9.19
2019-05-19T03:43:22.070Z,8.19
2019-05-19T03:44:22.051Z,7.00
2019-05-19T03:45:22.045Z,7.40
2019-05-19T03:46:22.031Z,8.10
2019-05-19T03:47:22.020Z,6.69
2019-05-19T03:48:22.005Z,7.00
2019-05-19T03:49:21.993Z,6.90
2019-05-19T03:50:21.981Z,7.59
2019-05-19T03:51:30.828Z,7.19
2019-05-19T03:52:22.988Z,8.19
2019-05-19T03:53:21.967Z,6.90
2019-05-19T03:54:21.939Z,6.59
2019-05-19T03:55:21.926Z,9.19
2019-05-19T03:56:21.920Z,9.69
2019-05-19T03:57:21.906Z,7.90
2019-05-19T03:58:21.890Z,6.90
2019-05-19T03:59:21.882Z,6.59
2019-05-19T04:00:21.875Z,7.90
2019-05-19T04:01:21.857Z,8.80
2019-05-19T04:02:21.851Z,7.09
2019-05-19T04:03:21.835Z,8.19
2019-05-19T04:04:21.826Z,8.80
2019-05-19T04:05:21.817Z,7.50
2019-05-19T04:06:21.804Z,7.69
2019-05-19T04:07:21.792Z,7.30
2019-05-19T04:08:21.779Z,7.59
2019-05-19T04:09:21.769Z,9.30
2019-05-19T04:10:21.757Z,7.50
2019-05-19T04:11:21.743Z,9.80
2019-05-19T04:12:21.737Z,7.69
2019-05-19T04:13:21.719Z,6.80
2019-05-19T04:14:21.713Z,6.19
2019-05-19T04:15:21.726Z,7.19
2019-05-19T04:16:21.687Z,7.00
2019-05-19T04:17:21.678Z,7.30
2019-05-19T04:18:21.661Z,7.50
2019-05-19T04:19:21.651Z,9.69
2019-05-19T04:20:21.651Z,7.00
2019-05-19T04:21:21.627Z,7.90
2019-05-19T04:22:21.619Z,6.80
2019-05-19T04:23:21.608Z,7.40
2019-05-19T04:24:21.596Z,6.80
2019-05-19T04:25:21.581Z,6.90
2019-05-19T04:26:21.570Z,7.09
2019-05-19T04:27:21.559Z,7.19
2019-05-19T04:28:21.546Z,7.50
2019-05-19T04:29:21.539Z,7.00
2019-05-19T04:30:21.524Z,6.90
2019-05-19T04:31:21.512Z,6.90
2019-05-19T04:32:21.509Z,9.30
2019-05-19T04:33:21.489Z,8.80
2019-05-19T04:34:21.478Z,9.60
2019-05-19T04:35:21.476Z,7.19
2019-05-19T04:36:21.454Z,7.69
2019-05-19T04:37:21.443Z,7.50
2019-05-19T04:38:21.444Z,6.30
2019-05-19T04:39:21.632Z,7.80
2019-05-19T04:40:21.413Z,6.09
2019-05-19T04:41:21.399Z,6.09
2019-05-19T04:42:21.388Z,7.59
2019-05-19T04:43:21.381Z,6.30
2019-05-19T04:44:21.379Z,7.90
2019-05-19T04:45:21.356Z,7.19
2019-05-19T04:46:21.363Z,7.69
2019-05-19T04:47:21.374Z,8.50
2019-05-19T04:48:21.372Z,7.19
2019-05-19T04:49:21.375Z,6.50
2019-05-19T04:50:21.311Z,7.19
2019-05-19T04:51:21.319Z,8.69
2019-05-19T04:52:21.320Z,8.00
2019-05-19T04:53:21.321Z,7.59
2019-05-19T04:54:21.256Z,7.69
2019-05-19T04:55:21.244Z,6.59
2019-05-19T04:56:21.233Z,7.59
2019-05-19T04:57:21.232Z,8.89
2019-05-19T04:58:21.211Z,8.10
2019-05-19T04:59:21.206Z,7.30
2019-05-19T05:00:21.198Z,7.00
2019-05-19T05:01:21.182Z,8.30
2019-05-19T05:02:21.168Z,6.59
2019-05-19T05:03:21.156Z,6.90
2019-05-19T05:04:21.152Z,8.69
2019-05-19T05:05:21.134Z,6.69
2019-05-19T05:06:21.131Z,7.19
2019-05-19T05:07:21.119Z,7.00
2019-05-19T05:08:29.839Z,7.09
2019-05-19T05:09:22.112Z,8.00
2019-05-19T05:10:21.076Z,6.40
2019-05-19T05:11:21.066Z,7.40
2019-05-19T05:12:21.055Z,9.80
2019-05-19T05:13:21.047Z,7.59
2019-05-19T05:14:21.029Z,9.10
2019-05-19T05:15:21.018Z,9.60
2019-05-19T05:16:21.033Z,6.90
2019-05-19T05:17:21.016Z,7.90
2019-05-19T05:18:20.983Z,8.30
2019-05-19T05:19:20.972Z,6.80
2019-05-19T05:20:20.963Z,7.00
2019-05-19T05:21:20.951Z,6.50
2019-05-19T05:22:22.391Z,7.00
2019-05-19T05:23:20.930Z,6.00
2019-05-19T05:24:20.918Z,7.50
2019-05-19T05:25:20.906Z,6.40
2019-05-19T05:26:20.895Z,6.30
2019-05-19T05:27:20.892Z,7.90
2019-05-19T05:28:20.875Z,7.50
2019-05-19T05:29:20.858Z,6.50
2019-05-19T05:30:20.846Z,7.19
2019-05-19T05:31:20.835Z,9.39
2019-05-19T05:32:20.828Z,7.90
2019-05-19T05:33:20.814Z,7.19
2019-05-19T05:34:20.803Z,7.09
2019-05-19T05:35:20.796Z,7.80
2019-05-19T05:36:20.779Z,9.00
2019-05-19T05:37:20.773Z,7.50
2019-05-19T05:38:20.758Z,7.69
2019-05-19T05:39:20.754Z,7.09
2019-05-19T05:40:20.736Z,7.19
2019-05-19T05:41:20.723Z,7.50
2019-05-19T05:42:20.731Z,10.69
2019-05-19T05:43:20.702Z,7.19
2019-05-19T05:44:20.691Z,8.30
2019-05-19T05:45:20.678Z,7.50
2019-05-19T05:46:20.678Z,7.69
2019-05-19T05:47:20.656Z,7.80
2019-05-19T05:48:20.646Z,7.50
2019-05-19T05:49:20.637Z,7.40
2019-05-19T05:50:20.624Z,8.30
2019-05-19T05:51:20.633Z,7.09
2019-05-19T05:52:20.600Z,10.10
2019-05-19T05:53:20.589Z,7.09
2019-05-19T05:54:20.581Z,7.90
2019-05-19T05:55:20.566Z,7.00
2019-05-19T05:56:20.560Z,7.00
2019-05-19T05:57:20.569Z,6.80
2019-05-19T05:58:20.534Z,6.40
2019-05-19T05:59:20.522Z,7.59
2019-05-19T06:00:20.515Z,8.60
2019-05-19T06:01:20.500Z,10.89
2019-05-19T06:02:20.491Z,7.09
2019-05-19T06:03:20.477Z,9.19
2019-05-19T06:04:20.468Z,6.50
2019-05-19T06:05:20.456Z,8.50
2019-05-19T06:06:20.464Z,6.80
2019-05-19T06:07:20.442Z,7.80
2019-05-19T06:08:20.427Z,6.80
2019-05-19T06:09:20.411Z,7.40
2019-05-19T06:10:20.401Z,7.69
2019-05-19T06:11:20.388Z,7.09
2019-05-19T06:12:20.379Z,6.90
2019-05-19T06:13:20.366Z,7.40
2019-05-19T06:14:20.357Z,8.60
2019-05-19T06:15:20.345Z,8.00
2019-05-19T06:16:20.337Z,7.90
2019-05-19T06:17:20.320Z,9.00
2019-05-19T06:18:20.312Z,8.50
2019-05-19T06:19:20.301Z,6.40
2019-05-19T06:20:20.286Z,8.10
2019-05-19T06:21:20.282Z,6.09
2019-05-19T06:22:20.265Z,6.59
2019-05-19T06:23:20.257Z,7.40
2019-05-19T06:24:20.252Z,8.89
2019-05-19T06:25:20.261Z,10.80
2019-05-19T06:26:20.226Z,7.69
2019-05-19T06:27:20.215Z,6.80
2019-05-19T06:28:20.198Z,8.80
2019-05-19T06:29:20.193Z,8.30
2019-05-19T06:30:20.190Z,9.10
2019-05-19T06:31:20.167Z,8.39
2019-05-19T06:32:20.174Z,7.69
2019-05-19T06:33:20.144Z,7.69
2019-05-19T06:34:20.134Z,7.19
2019-05-19T06:35:20.125Z,9.30
2019-05-19T06:36:20.110Z,8.60
2019-05-19T06:37:20.101Z,7.40
2019-05-19T06:38:20.090Z,8.00
2019-05-19T06:39:20.082Z,6.90
2019-05-19T06:40:20.067Z,12.00
2019-05-19T06:41:20.056Z,7.19
2019-05-19T06:42:20.046Z,7.30
2019-05-19T06:43:20.034Z,7.80
2019-05-19T06:44:20.020Z,6.50
2019-05-19T06:45:20.012Z,6.59
2019-05-19T06:46:20.008Z,7.00
2019-05-19T06:47:19.989Z,6.09
2019-05-19T06:48:19.978Z,6.80
2019-05-19T06:49:19.967Z,7.30
2019-05-19T06:50:19.957Z,7.30
2019-05-19T06:51:19.948Z,7.30
2019-05-19T06:52:19.934Z,8.30
2019-05-19T06:53:19.922Z,7.90
2019-05-19T06:54:19.934Z,15.00
2019-05-19T06:55:19.902Z,8.30
2019-05-19T06:56:19.893Z,6.80
2019-05-19T06:57:19.887Z,6.80
2019-05-19T06:58:19.871Z,7.69
2019-05-19T06:59:19.859Z,6.19
2019-05-19T07:00:19.846Z,7.59
2019-05-19T07:01:19.840Z,6.40
2019-05-19T07:02:19.949Z,8.30
2019-05-19T07:03:19.819Z,8.10
2019-05-19T07:04:19.804Z,5.90
2019-05-19T07:05:19.791Z,5.90
2019-05-19T07:06:19.779Z,6.19
2019-05-19T07:07:19.768Z,6.30
2019-05-19T07:08:19.758Z,5.90
2019-05-19T07:09:19.749Z,7.80
2019-05-19T07:10:19.735Z,5.59
2019-05-19T07:11:19.726Z,5.59
2019-05-19T07:12:19.716Z,5.80
2019-05-19T07:13:19.707Z,5.90
2019-05-19T07:14:19.697Z,6.30
2019-05-19T07:15:19.683Z,5.80
2019-05-19T07:16:19.674Z,6.80
2019-05-19T07:17:19.658Z,7.59
2019-05-19T07:18:19.648Z,5.30
2019-05-19T07:19:19.640Z,6.69
2019-05-19T07:20:19.631Z,6.80
2019-05-19T07:21:19.616Z,6.09
2019-05-19T07:22:19.651Z,6.40
2019-05-19T07:23:27.927Z,5.19
2019-05-19T07:24:44.060Z,7.00
2019-05-19T07:25:44.048Z,7.00
2019-05-19T07:26:44.041Z,6.09
2019-05-19T07:27:44.028Z,6.40
2019-05-19T07:28:44.018Z,5.80
2019-05-19T07:29:44.013Z,8.89
2019-05-19T07:30:43.997Z,5.50
2019-05-19T07:31:43.985Z,5.30
2019-05-19T07:32:43.978Z,5.59
2019-05-19T07:33:43.968Z,5.00
2019-05-19T07:34:43.953Z,7.09
2019-05-19T07:35:43.946Z,7.90
2019-05-19T07:36:43.938Z,7.59
2019-05-19T07:37:43.928Z,6.09
2019-05-19T07:38:43.913Z,5.50
2019-05-19T07:39:43.901Z,4.40
2019-05-19T07:40:43.892Z,6.50
2019-05-19T07:41:43.881Z,4.50
2019-05-19T07:42:43.869Z,5.09
2019-05-19T07:43:43.864Z,4.50
2019-05-19T07:44:45.361Z,5.09
2019-05-19T07:45:43.842Z,4.69
2019-05-19T07:46:43.842Z,5.40
2019-05-19T07:47:43.816Z,4.69
2019-05-19T07:48:43.808Z,5.80
2019-05-19T07:49:43.802Z,5.50
2019-05-19T07:50:43.791Z,4.40
2019-05-19T07:51:43.778Z,5.19
2019-05-19T07:52:43.791Z,5.69
2019-05-19T07:53:43.757Z,6.40
2019-05-19T07:54:43.800Z,4.19
2019-05-19T07:55:43.739Z,4.90
2019-05-19T07:56:43.804Z,4.09
2019-05-19T07:57:43.720Z,4.90
2019-05-19T07:58:43.738Z,3.70
2019-05-19T07:59:43.698Z,4.69
2019-05-19T08:00:43.697Z,4.09
2019-05-19T08:01:43.671Z,3.59
2019-05-19T08:02:43.659Z,4.09
2019-05-19T08:03:43.654Z,3.90
2019-05-19T08:04:43.646Z,3.70
2019-05-19T08:05:43.628Z,3.90
2019-05-19T08:06:43.621Z,4.09
2019-05-19T08:07:43.608Z,3.59
2019-05-19T08:08:43.600Z,3.79
2019-05-19T08:09:43.586Z,3.50
2019-05-19T08:10:43.605Z,5.30
2019-05-19T08:11:43.566Z,3.09
2019-05-19T08:12:43.559Z,3.90
2019-05-19T08:13:43.551Z,3.79
2019-05-19T08:14:43.539Z,4.69
2019-05-19T08:15:43.530Z,3.90
2019-05-19T08:16:43.525Z,3.79
2019-05-19T08:17:43.507Z,6.19
2019-05-19T08:18:43.494Z,3.70
2019-05-19T08:19:43.487Z,3.00
2019-05-19T08:20:43.474Z,3.40
2019-05-19T08:21:43.463Z,3.40
2019-05-19T08:22:43.482Z,3.79
2019-05-19T08:23:58.427Z,3.90
2019-05-19T08:25:07.920Z,3.50
2019-05-19T08:26:07.904Z,3.50
2019-05-19T08:27:07.901Z,6.80
2019-05-19T08:28:09.128Z,3.29
2019-05-19T08:29:07.874Z,3.50
2019-05-19T08:30:07.865Z,4.59
2019-05-19T08:31:07.854Z,3.40
2019-05-19T08:32:07.874Z,3.20
2019-05-19T08:33:07.874Z,3.09
2019-05-19T08:34:08.097Z,3.29
2019-05-19T08:35:07.816Z,3.59
2019-05-19T08:36:07.800Z,3.50
2019-05-19T08:37:07.794Z,4.09
2019-05-19T08:38:07.783Z,4.19
2019-05-19T08:39:07.769Z,3.70
2019-05-19T08:40:07.768Z,3.40
2019-05-19T08:41:07.761Z,3.09
2019-05-19T08:42:07.741Z,3.00
2019-05-19T08:43:07.727Z,3.59
2019-05-19T08:44:07.718Z,3.29
2019-05-19T08:45:07.735Z,4.19
2019-05-19T08:46:07.704Z,3.20
2019-05-19T08:47:07.687Z,3.50
2019-05-19T08:48:07.678Z,3.50
2019-05-19T08:49:07.668Z,4.00
2019-05-19T08:50:07.665Z,3.59
2019-05-19T08:51:07.653Z,4.50
2019-05-19T08:52:07.637Z,4.40
2019-05-19T08:53:07.633Z,3.59
2019-05-19T08:54:15.043Z,3.29
2019-05-19T08:56:32.075Z,4.00
2019-05-19T08:57:32.087Z,3.50
2019-05-19T08:58:32.054Z,3.29
2019-05-19T08:59:32.046Z,3.59
2019-05-19T09:00:36.144Z,3.40
2019-05-19T09:01:56.504Z,2.50
2019-05-19T09:02:56.493Z,2.70
2019-05-19T09:03:56.481Z,3.20
2019-05-19T09:04:56.471Z,3.29
2019-05-19T09:05:56.463Z,3.00
2019-05-19T09:06:56.455Z,3.20
2019-05-19T09:07:56.442Z,3.09
2019-05-19T09:08:56.433Z,3.59
2019-05-19T09:09:56.425Z,3.20
2019-05-19T09:10:56.411Z,3.29
2019-05-19T09:11:56.406Z,2.50
2019-05-19T09:12:56.395Z,4.80
2019-05-19T09:13:56.420Z,3.40
2019-05-19T09:14:56.372Z,3.00
2019-05-19T09:15:56.366Z,3.09
2019-05-19T09:16:56.360Z,3.50
2019-05-19T09:17:56.388Z,4.09
2019-05-19T09:18:56.331Z,3.50
2019-05-19T09:19:56.322Z,3.59
2019-05-19T09:20:56.313Z,3.20
2019-05-19T09:21:56.303Z,3.09
2019-05-19T09:22:56.292Z,2.70
2019-05-19T09:23:56.328Z,2.79
2019-05-19T09:24:56.270Z,3.50
2019-05-19T09:25:56.263Z,3.29
2019-05-19T09:26:56.271Z,2.90
2019-05-19T09:27:56.249Z,3.70
2019-05-19T09:28:56.236Z,3.59
2019-05-19T09:29:56.226Z,4.09
2019-05-19T09:30:56.211Z,3.00
2019-05-19T09:31:56.210Z,3.90
2019-05-19T09:32:56.193Z,3.00
2019-05-19T09:33:56.182Z,2.79
2019-05-19T09:34:56.176Z,3.79
2019-05-19T09:35:56.162Z,3.20
2019-05-19T09:36:56.154Z,2.90
2019-05-19T09:37:56.143Z,2.70
2019-05-19T09:38:56.133Z,3.59
2019-05-19T09:39:56.122Z,3.00
2019-05-19T09:40:56.112Z,4.09
2019-05-19T09:41:56.104Z,2.90
2019-05-19T09:42:56.091Z,3.70
2019-05-19T09:43:56.115Z,2.70
2019-05-19T09:44:56.074Z,3.79
2019-05-19T09:45:56.066Z,2.59
2019-05-19T09:46:56.054Z,2.40
2019-05-19T09:47:56.044Z,2.50
2019-05-19T09:48:56.038Z,2.50
2019-05-19T09:49:56.024Z,2.50
2019-05-19T09:50:56.145Z,2.09
2019-05-19T09:51:56.005Z,6.69
2019-05-19T09:52:55.995Z,4.59
2019-05-19T09:53:55.991Z,2.79
2019-05-19T09:54:56.019Z,1.90
2019-05-19T09:55:55.965Z,1.90
2019-05-19T09:56:55.959Z,2.09
2019-05-19T09:57:55.946Z,2.40
2019-05-19T09:58:55.937Z,2.29
2019-05-19T09:59:55.931Z,3.79
2019-05-19T10:00:55.925Z,2.20
2019-05-19T10:01:55.918Z,2.20
2019-05-19T10:02:55.900Z,2.09
2019-05-19T10:03:55.888Z,2.29
2019-05-19T10:04:55.879Z,2.90
2019-05-19T10:05:55.870Z,2.50
2019-05-19T10:06:56.029Z,2.20
2019-05-19T10:07:55.849Z,2.50
2019-05-19T10:08:55.894Z,2.59
2019-05-19T10:09:55.835Z,2.40
2019-05-19T10:10:55.822Z,2.50
2019-05-19T10:11:55.816Z,2.50
2019-05-19T10:12:55.808Z,2.70
2019-05-19T10:13:55.797Z,2.40
2019-05-19T10:14:55.789Z,2.29
2019-05-19T10:15:55.780Z,3.59
2019-05-19T10:16:55.763Z,3.09
2019-05-19T10:17:55.752Z,2.79
2019-05-19T10:18:55.746Z,2.79
2019-05-19T10:19:55.734Z,2.50
2019-05-19T10:20:55.726Z,2.59
2019-05-19T10:21:55.718Z,3.00
2019-05-19T10:22:55.703Z,2.50
2019-05-19T10:23:55.696Z,2.50
2019-05-19T10:25:10.857Z,2.50
2019-05-19T10:25:56.693Z,2.59
2019-05-19T10:26:55.670Z,3.09
2019-05-19T10:27:55.660Z,3.20
2019-05-19T10:28:55.645Z,2.59
2019-05-19T10:29:55.638Z,2.90
2019-05-19T10:30:55.635Z,2.50
2019-05-19T10:31:55.622Z,2.70
2019-05-19T10:32:58.640Z,2.70
2019-05-19T10:33:55.604Z,2.90
2019-05-19T10:34:55.611Z,3.00
2019-05-19T10:35:55.581Z,3.09
2019-05-19T10:36:55.576Z,2.59
2019-05-19T10:37:55.569Z,3.50
2019-05-19T10:38:55.551Z,5.19
2019-05-19T10:39:55.543Z,2.50
2019-05-19T10:40:55.532Z,2.59
2019-05-19T10:41:55.525Z,2.20
2019-05-19T10:42:55.513Z,2.79
2019-05-19T10:43:55.508Z,2.70
2019-05-19T10:44:55.492Z,2.40
2019-05-19T10:45:55.483Z,2.29
2019-05-19T10:46:55.474Z,2.20
2019-05-19T10:47:55.466Z,2.79
2019-05-19T10:48:55.454Z,3.40
2019-05-19T10:49:55.450Z,2.59
2019-05-19T10:50:55.437Z,3.20
2019-05-19T10:51:55.430Z,3.59
2019-05-19T10:52:55.421Z,3.00
2019-05-19T10:53:55.407Z,2.40
2019-05-19T10:54:55.401Z,2.50
2019-05-19T10:55:55.389Z,2.50
2019-05-19T10:56:55.379Z,2.90
2019-05-19T10:57:55.369Z,2.70
2019-05-19T10:58:55.360Z,2.50
2019-05-19T10:59:55.355Z,2.59
2019-05-19T11:00:55.344Z,2.59
2019-05-19T11:01:55.333Z,3.70
2019-05-19T11:02:55.324Z,2.70
2019-05-19T11:03:55.313Z,2.70
2019-05-19T11:04:55.305Z,2.40
2019-05-19T11:05:55.299Z,3.20
2019-05-19T11:06:55.294Z,2.70
2019-05-19T11:07:55.276Z,2.59
2019-05-19T11:08:55.269Z,3.29
2019-05-19T11:09:55.263Z,3.40
2019-05-19T11:10:55.259Z,2.70
2019-05-19T11:11:55.239Z,2.90
2019-05-19T11:12:55.228Z,3.20
2019-05-19T11:13:55.219Z,3.29
2019-05-19T11:14:55.210Z,3.40
2019-05-19T11:15:55.207Z,3.00
2019-05-19T11:16:55.191Z,2.70
2019-05-19T11:17:55.187Z,3.09
2019-05-19T11:18:55.171Z,3.00
2019-05-19T11:19:55.160Z,3.90
2019-05-19T11:20:55.151Z,3.00
2019-05-19T11:21:55.153Z,3.20
2019-05-19T11:22:55.134Z,3.29
2019-05-19T11:23:55.121Z,2.90
2019-05-19T11:24:55.112Z,3.00
2019-05-19T11:25:55.102Z,2.90
2019-05-19T11:26:55.096Z,2.79
2019-05-19T11:27:55.085Z,3.50
2019-05-19T11:28:55.073Z,3.90
2019-05-19T11:29:55.063Z,3.20
2019-05-19T11:30:55.053Z,2.70
2019-05-19T11:31:55.047Z,2.59
2019-05-19T11:32:55.033Z,3.00
2019-05-19T11:33:55.027Z,2.90
2019-05-19T11:34:55.014Z,3.00
2019-05-19T11:35:55.003Z,2.70
2019-05-19T11:36:54.997Z,3.20
2019-05-19T11:37:54.983Z,2.79
2019-05-19T11:38:54.974Z,2.70
2019-05-19T11:39:54.964Z,2.79
2019-05-19T11:40:54.957Z,2.70
2019-05-19T11:41:54.944Z,3.00
2019-05-19T11:42:54.941Z,3.79
2019-05-19T11:43:54.929Z,3.29
2019-05-19T11:44:54.928Z,3.29
2019-05-19T11:45:54.906Z,3.40
2019-05-19T11:46:54.896Z,2.90
2019-05-19T11:47:54.890Z,2.70
2019-05-19T11:48:54.875Z,3.20
2019-05-19T11:49:54.868Z,2.70
2019-05-19T11:50:54.860Z,2.20
2019-05-19T11:51:54.845Z,2.79
2019-05-19T11:52:54.835Z,3.29
2019-05-19T11:53:54.826Z,3.00
2019-05-19T11:54:54.826Z,3.09
2019-05-19T11:56:06.154Z,3.79
2019-05-19T11:57:19.269Z,3.40
2019-05-19T11:58:19.498Z,3.20
2019-05-19T11:59:19.249Z,3.59
2019-05-19T12:00:19.245Z,5.59
2019-05-19T12:01:19.233Z,3.29
2019-05-19T12:02:19.219Z,3.09
2019-05-19T12:03:19.215Z,3.29
2019-05-19T12:04:19.200Z,2.79
2019-05-19T12:05:19.191Z,3.09
2019-05-19T12:06:19.187Z,3.40
2019-05-19T12:07:19.175Z,3.20
2019-05-19T12:08:19.165Z,2.90
2019-05-19T12:09:19.150Z,2.90
2019-05-19T12:10:19.138Z,4.19
2019-05-19T12:11:19.131Z,3.50
2019-05-19T12:12:19.119Z,3.40
2019-05-19T12:13:19.115Z,3.20
2019-05-19T12:14:19.099Z,3.00
2019-05-19T12:15:19.092Z,3.20
2019-05-19T12:16:19.085Z,4.30
2019-05-19T12:17:19.065Z,3.00
2019-05-19T12:18:19.058Z,3.70
2019-05-19T12:19:19.048Z,3.09
2019-05-19T12:20:19.037Z,3.20
2019-05-19T12:21:19.027Z,2.79
2019-05-19T12:22:19.015Z,2.70
2019-05-19T12:23:19.004Z,3.20
2019-05-19T12:24:18.996Z,3.00
2019-05-19T12:25:18.989Z,4.69
2019-05-19T12:26:23.049Z,4.09
2019-05-19T12:27:18.963Z,3.20
2019-05-19T12:28:18.961Z,2.90
2019-05-19T12:29:18.944Z,3.50
2019-05-19T12:30:18.940Z,3.20
2019-05-19T12:31:18.923Z,3.70
2019-05-19T12:32:18.950Z,3.59
2019-05-19T12:33:18.901Z,3.70
2019-05-19T12:34:18.895Z,3.50
2019-05-19T12:35:18.892Z,3.20
2019-05-19T12:36:18.875Z,2.79
2019-05-19T12:37:18.861Z,3.20
2019-05-19T12:38:18.855Z,3.09
2019-05-19T12:39:18.847Z,3.09
2019-05-19T12:40:22.323Z,3.09
2019-05-19T12:41:18.828Z,4.00
2019-05-19T12:42:18.810Z,3.20
2019-05-19T12:43:18.805Z,3.29
2019-05-19T12:44:18.798Z,3.90
2019-05-19T12:45:18.781Z,6.40
2019-05-19T12:46:18.777Z,3.59
2019-05-19T12:47:18.759Z,3.59
2019-05-19T12:48:18.751Z,3.40
2019-05-19T12:49:18.739Z,3.50
2019-05-19T12:50:18.728Z,3.50
2019-05-19T12:51:18.762Z,3.59
2019-05-19T12:52:18.705Z,3.09
2019-05-19T12:53:18.701Z,4.19
2019-05-19T12:54:18.694Z,3.29
2019-05-19T12:55:18.679Z,3.70
2019-05-19T12:56:18.676Z,3.59
2019-05-19T12:57:21.192Z,3.29
2019-05-19T12:58:18.775Z,3.50
2019-05-19T12:59:18.635Z,4.09
2019-05-19T13:00:18.630Z,3.50
2019-05-19T13:01:18.613Z,3.70
2019-05-19T13:02:18.602Z,3.40
2019-05-19T13:03:18.602Z,3.79
2019-05-19T13:04:18.587Z,4.00
2019-05-19T13:05:18.571Z,3.09
2019-05-19T13:06:18.560Z,3.40
2019-05-19T13:07:18.558Z,4.19
2019-05-19T13:08:18.539Z,4.19
2019-05-19T13:09:18.529Z,3.79
2019-05-19T13:10:18.626Z,3.70
2019-05-19T13:11:18.511Z,3.79
2019-05-19T13:12:18.501Z,3.79
2019-05-19T13:13:18.494Z,3.90
2019-05-19T13:14:18.477Z,3.70
2019-05-19T13:15:18.465Z,3.59
2019-05-19T13:16:18.463Z,3.79
2019-05-19T13:17:18.448Z,3.79
2019-05-19T13:18:18.435Z,3.59
2019-05-19T13:19:18.433Z,3.40
2019-05-19T13:20:18.411Z,4.00
2019-05-19T13:21:18.797Z,4.00
2019-05-19T13:22:18.412Z,3.40
2019-05-19T13:23:18.415Z,4.09
2019-05-19T13:24:18.383Z,3.50
2019-05-19T13:25:18.366Z,4.19
2019-05-19T13:26:18.353Z,3.29
2019-05-19T13:27:18.338Z,3.50
2019-05-19T13:28:18.326Z,3.29
2019-05-19T13:29:18.317Z,3.40
2019-05-19T13:30:18.312Z,3.50
2019-05-19T13:31:18.298Z,3.00
2019-05-19T13:32:18.287Z,4.09
2019-05-19T13:33:18.275Z,3.20
2019-05-19T13:34:18.267Z,3.29
2019-05-19T13:35:18.253Z,3.50
2019-05-19T13:36:18.247Z,3.00
2019-05-19T13:37:18.236Z,3.20
2019-05-19T13:38:18.224Z,3.40
2019-05-19T13:39:18.213Z,4.40
2019-05-19T13:40:18.206Z,3.20
2019-05-19T13:41:18.192Z,3.20
2019-05-19T13:42:18.189Z,3.50
2019-05-19T13:43:18.169Z,5.80
2019-05-19T13:44:18.169Z,3.29
2019-05-19T13:45:18.169Z,3.29
2019-05-19T13:46:18.174Z,4.59
2019-05-19T13:47:18.180Z,3.40
2019-05-19T13:48:18.124Z,4.90
2019-05-19T13:49:18.152Z,3.40
2019-05-19T13:50:18.127Z,3.09
2019-05-19T13:51:18.129Z,3.20
2019-05-19T13:52:18.135Z,3.59
2019-05-19T13:53:18.063Z,4.50
2019-05-19T13:54:18.056Z,3.09
2019-05-19T13:55:18.041Z,3.09
2019-05-19T13:56:18.042Z,3.59
2019-05-19T13:57:18.021Z,3.70
2019-05-19T13:58:18.010Z,3.90
2019-05-19T13:59:18.005Z,5.30
2019-05-19T14:00:17.992Z,3.90
2019-05-19T14:01:28.131Z,6.19
2019-05-19T14:02:18.995Z,4.50
2019-05-19T14:03:17.957Z,6.00
2019-05-19T14:04:17.949Z,4.30
2019-05-19T14:05:17.940Z,4.50
2019-05-19T14:06:17.937Z,4.00
2019-05-19T14:07:17.935Z,4.50
2019-05-19T14:08:17.903Z,4.50
2019-05-19T14:09:17.894Z,5.30
2019-05-19T14:10:17.885Z,4.40
2019-05-19T14:11:17.872Z,4.19
2019-05-19T14:12:17.860Z,4.50
2019-05-19T14:13:17.856Z,4.19
2019-05-19T14:14:17.850Z,4.19
2019-05-19T14:15:17.829Z,4.30
2019-05-19T14:16:17.822Z,4.50
2019-05-19T14:17:17.870Z,4.09
2019-05-19T14:18:17.816Z,4.30
2019-05-19T14:19:17.784Z,3.79
2019-05-19T14:20:17.774Z,4.59
2019-05-19T14:21:17.764Z,5.59
2019-05-19T14:22:17.751Z,4.40
2019-05-19T14:23:17.741Z,4.09
2019-05-19T14:24:17.736Z,4.30
2019-05-19T14:25:17.720Z,4.50
2019-05-19T14:26:17.717Z,5.69
2019-05-19T14:27:29.613Z,3.90
2019-05-19T14:28:42.165Z,4.40
2019-05-19T14:29:42.151Z,4.90
2019-05-19T14:30:42.146Z,5.00
2019-05-19T14:31:42.131Z,6.09
2019-05-19T14:32:42.118Z,5.59
2019-05-19T14:33:42.108Z,5.80
2019-05-19T14:34:42.101Z,4.59
2019-05-19T14:35:42.095Z,6.40
2019-05-19T14:36:42.077Z,5.19
2019-05-19T14:37:42.066Z,5.80
2019-05-19T14:38:42.057Z,5.00
2019-05-19T14:39:42.060Z,3.70
2019-05-19T14:40:42.032Z,4.19
2019-05-19T14:41:42.024Z,4.30
2019-05-19T14:42:42.016Z,5.09
2019-05-19T14:43:42.000Z,4.00
2019-05-19T14:44:41.994Z,6.69
2019-05-19T14:45:41.985Z,3.70
2019-05-19T14:46:41.969Z,4.69
2019-05-19T14:47:41.958Z,3.79
2019-05-19T14:48:41.950Z,4.09
2019-05-19T14:49:41.939Z,3.79
2019-05-19T14:50:41.925Z,3.40
2019-05-19T14:51:41.921Z,3.59
2019-05-19T14:52:41.904Z,4.00
2019-05-19T14:53:41.893Z,3.50
2019-05-19T14:54:41.887Z,3.59
2019-05-19T14:55:41.876Z,4.59
2019-05-19T14:56:41.862Z,4.00
2019-05-19T14:57:45.257Z,3.20
2019-05-19T14:58:41.845Z,4.59
2019-05-19T14:59:41.830Z,4.40
2019-05-19T15:00:41.821Z,3.70
2019-05-19T15:01:41.819Z,3.50
2019-05-19T15:02:41.800Z,4.69
2019-05-19T15:03:41.812Z,3.50
2019-05-19T15:04:41.780Z,3.40
2019-05-19T15:05:41.768Z,3.29
2019-05-19T15:06:41.759Z,3.90
2019-05-19T15:07:41.743Z,3.70
2019-05-19T15:08:41.734Z,4.40
2019-05-19T15:09:41.731Z,3.59
2019-05-19T15:10:41.710Z,3.29
2019-05-19T15:11:41.703Z,4.40
2019-05-19T15:12:41.691Z,3.50
2019-05-19T15:13:41.678Z,3.50
2019-05-19T15:14:41.672Z,5.09
2019-05-19T15:15:41.657Z,3.90
2019-05-19T15:16:41.647Z,3.90
2019-05-19T15:17:41.635Z,3.79
2019-05-19T15:18:41.623Z,4.40
2019-05-19T15:19:41.614Z,3.70
2019-05-19T15:20:41.602Z,3.59
2019-05-19T15:21:41.602Z,4.19
2019-05-19T15:22:41.581Z,4.19
2019-05-19T15:23:41.593Z,3.90
2019-05-19T15:24:41.563Z,3.79
2019-05-19T15:25:41.547Z,4.50
2019-05-19T15:26:41.535Z,5.80
2019-05-19T15:27:41.528Z,4.09
2019-05-19T15:28:41.521Z,5.09
2019-05-19T15:29:41.504Z,4.80
2019-05-19T15:30:41.509Z,4.69
2019-05-19T15:31:41.480Z,4.40
2019-05-19T15:32:41.471Z,3.70
2019-05-19T15:33:41.459Z,4.00
2019-05-19T15:34:41.450Z,5.90
2019-05-19T15:35:41.442Z,8.00
2019-05-19T15:36:41.574Z,5.50
2019-05-19T15:37:41.418Z,5.09
2019-05-19T15:38:41.403Z,3.90
2019-05-19T15:39:41.595Z,3.70
2019-05-19T15:40:41.397Z,4.00
2019-05-19T15:41:41.376Z,3.59
2019-05-19T15:42:41.361Z,4.00
2019-05-19T15:43:41.355Z,4.00
2019-05-19T15:44:41.342Z,5.00
2019-05-19T15:45:41.332Z,3.79
2019-05-19T15:46:41.319Z,5.09
2019-05-19T15:47:41.311Z,4.00